sensor_id;sensor_type;location;lat;lon;timestamp;temperature;humidity
52769;DHT22;40471;44.534;18.644;2024-02-26T08:38:02;9.90;99.90
52769;DHT22;40471;44.534;18.644;2024-02-26T08:40:29;10.10;99.90
52769;DHT22;40471;44.534;18.644;2024-02-26T08:42:55;10.50;99.90
52769;DHT22;40471;44.534;18.644;2024-02-26T08:45:21;10.90;99.90
52769;DHT22;40471;44.534;18.644;2024-02-26T08:47:47;11.40;99.90
52769;DHT22;40471;44.534;18.644;2024-02-26T08:50:14;11.80;99.90
52769;DHT22;40471;44.534;18.644;2024-02-26T08:52:40;12.00;99.90
52769;DHT22;40471;44.534;18.644;2024-02-26T08:55:06;12.40;99.90
52769;DHT22;40471;44.534;18.644;2024-02-26T08:57:34;12.60;99.90
52769;DHT22;40471;44.534;18.644;2024-02-26T09:00:01;13.00;99.90
52769;DHT22;40471;44.534;18.644;2024-02-26T09:02:27;13.80;99.90
52769;DHT22;40471;44.534;18.644;2024-02-26T09:04:53;14.80;99.90
52769;DHT22;40471;44.534;18.644;2024-02-26T09:07:21;16.00;99.90
52769;DHT22;40471;44.534;18.644;2024-02-26T09:09:48;17.00;99.90
52769;DHT22;40471;44.534;18.644;2024-02-26T09:12:14;17.90;99.90
52769;DHT22;40471;44.534;18.644;2024-02-26T09:14:40;18.20;99.90
52769;DHT22;40471;44.534;18.644;2024-02-26T09:17:06;18.50;99.90
52769;DHT22;40471;44.534;18.644;2024-02-26T09:19:33;18.80;99.90
52769;DHT22;40471;44.534;18.644;2024-02-26T09:22:01;19.30;99.90
52769;DHT22;40471;44.534;18.644;2024-02-26T09:24:27;19.80;99.90
52769;DHT22;40471;44.534;18.644;2024-02-26T09:26:53;20.30;99.90
52769;DHT22;40471;44.534;18.644;2024-02-26T09:29:19;20.60;96.10
52769;DHT22;40471;44.534;18.644;2024-02-26T09:31:45;21.00;94.10
52769;DHT22;40471;44.534;18.644;2024-02-26T09:34:13;21.40;92.40
52769;DHT22;40471;44.534;18.644;2024-02-26T09:36:39;21.70;91.70
52769;DHT22;40471;44.534;18.644;2024-02-26T09:39:05;22.00;86.20
52769;DHT22;40471;44.534;18.644;2024-02-26T09:41:32;22.10;86.60
52769;DHT22;40471;44.534;18.644;2024-02-26T09:43:58;22.10;85.90
52769;DHT22;40471;44.534;18.644;2024-02-26T09:46:27;22.10;86.00
52769;DHT22;40471;44.534;18.644;2024-02-26T09:48:54;22.40;82.90
52769;DHT22;40471;44.534;18.644;2024-02-26T09:51:23;22.70;84.50
52769;DHT22;40471;44.534;18.644;2024-02-26T09:53:52;22.70;83.20
52769;DHT22;40471;44.534;18.644;2024-02-26T09:56:19;22.90;81.60
52769;DHT22;40471;44.534;18.644;2024-02-26T09:58:46;22.90;80.00
52769;DHT22;40471;44.534;18.644;2024-02-26T10:01:20;23.00;81.70
52769;DHT22;40471;44.534;18.644;2024-02-26T10:03:55;22.90;80.70
52769;DHT22;40471;44.534;18.644;2024-02-26T10:06:24;23.00;82.90
52769;DHT22;40471;44.534;18.644;2024-02-26T10:08:54;23.30;83.90
52769;DHT22;40471;44.534;18.644;2024-02-26T10:11:21;23.60;81.40
52769;DHT22;40471;44.534;18.644;2024-02-26T10:13:47;23.90;79.30
52769;DHT22;40471;44.534;18.644;2024-02-26T10:16:13;24.10;82.30
52769;DHT22;40471;44.534;18.644;2024-02-26T10:18:50;24.10;80.70
52769;DHT22;40471;44.534;18.644;2024-02-26T10:21:18;24.10;80.30
52769;DHT22;40471;44.534;18.644;2024-02-26T10:23:44;24.20;81.30
52769;DHT22;40471;44.534;18.644;2024-02-26T10:26:12;24.30;82.20
52769;DHT22;40471;44.534;18.644;2024-02-26T10:28:40;24.30;81.90
52769;DHT22;40471;44.534;18.644;2024-02-26T10:31:06;24.40;81.80
52769;DHT22;40471;44.534;18.644;2024-02-26T10:33:36;24.40;80.90
52769;DHT22;40471;44.534;18.644;2024-02-26T10:36:06;24.50;78.40
52769;DHT22;40471;44.534;18.644;2024-02-26T10:38:33;24.50;79.40
52769;DHT22;40471;44.534;18.644;2024-02-26T10:41:02;24.70;80.00
52769;DHT22;40471;44.534;18.644;2024-02-26T10:43:29;24.90;79.00
52769;DHT22;40471;44.534;18.644;2024-02-26T10:45:55;25.30;77.30
52769;DHT22;40471;44.534;18.644;2024-02-26T10:48:21;25.60;73.60
52769;DHT22;40471;44.534;18.644;2024-02-26T10:50:48;25.90;72.40
52769;DHT22;40471;44.534;18.644;2024-02-26T10:53:21;26.20;71.90
52769;DHT22;40471;44.534;18.644;2024-02-26T10:56:13;26.60;71.40
52769;DHT22;40471;44.534;18.644;2024-02-26T10:58:42;26.80;70.30
52769;DHT22;40471;44.534;18.644;2024-02-26T11:01:09;26.90;69.00
52769;DHT22;40471;44.534;18.644;2024-02-26T11:03:37;26.80;67.20
52769;DHT22;40471;44.534;18.644;2024-02-26T11:06:04;27.10;62.50
52769;DHT22;40471;44.534;18.644;2024-02-26T11:08:31;27.30;59.60
52769;DHT22;40471;44.534;18.644;2024-02-26T11:10:58;27.40;58.60
52769;DHT22;40471;44.534;18.644;2024-02-26T11:13:29;27.50;62.40
52769;DHT22;40471;44.534;18.644;2024-02-26T11:15:56;27.70;59.30
52769;DHT22;40471;44.534;18.644;2024-02-26T11:18:27;28.00;60.80
52769;DHT22;40471;44.534;18.644;2024-02-26T11:20:54;28.20;58.50
52769;DHT22;40471;44.534;18.644;2024-02-26T11:23:23;28.20;55.80
52769;DHT22;40471;44.534;18.644;2024-02-26T11:25:55;28.10;56.80
52769;DHT22;40471;44.534;18.644;2024-02-26T11:28:23;28.20;56.50
52769;DHT22;40471;44.534;18.644;2024-02-26T11:30:50;28.10;56.80
52769;DHT22;40471;44.534;18.644;2024-02-26T11:33:19;28.20;56.80
52769;DHT22;40471;44.534;18.644;2024-02-26T11:35:45;28.10;55.60
52769;DHT22;40471;44.534;18.644;2024-02-26T11:38:20;27.90;56.60
52769;DHT22;40471;44.534;18.644;2024-02-26T11:40:48;27.90;56.30
52769;DHT22;40471;44.534;18.644;2024-02-26T11:43:15;27.90;55.80
52769;DHT22;40471;44.534;18.644;2024-02-26T11:48:13;27.60;57.40
52769;DHT22;40471;44.534;18.644;2024-02-26T11:50:41;27.40;56.70
52769;DHT22;40471;44.534;18.644;2024-02-26T11:53:30;27.40;56.50
52769;DHT22;40471;44.534;18.644;2024-02-26T11:59:03;27.60;55.40
52769;DHT22;40471;44.534;18.644;2024-02-26T12:01:37;27.70;54.90
52769;DHT22;40471;44.534;18.644;2024-02-26T12:04:08;27.50;55.20
52769;DHT22;40471;44.534;18.644;2024-02-26T12:06:44;27.70;55.30
52769;DHT22;40471;44.534;18.644;2024-02-26T12:09:11;27.30;56.00
52769;DHT22;40471;44.534;18.644;2024-02-26T12:11:39;26.90;55.80
52769;DHT22;40471;44.534;18.644;2024-02-26T12:14:12;26.50;56.60
52769;DHT22;40471;44.534;18.644;2024-02-26T12:16:41;26.40;55.70
52769;DHT22;40471;44.534;18.644;2024-02-26T12:19:11;26.70;56.30
52769;DHT22;40471;44.534;18.644;2024-02-26T12:21:53;26.90;56.50
52769;DHT22;40471;44.534;18.644;2024-02-26T12:24:21;26.80;55.80
52769;DHT22;40471;44.534;18.644;2024-02-26T12:26:47;26.60;56.00
52769;DHT22;40471;44.534;18.644;2024-02-26T12:29:13;26.50;55.90
52769;DHT22;40471;44.534;18.644;2024-02-26T12:31:40;26.40;57.20
52769;DHT22;40471;44.534;18.644;2024-02-26T12:34:06;26.30;56.30
52769;DHT22;40471;44.534;18.644;2024-02-26T12:36:34;26.20;57.20
52769;DHT22;40471;44.534;18.644;2024-02-26T12:39:01;26.10;56.80
52769;DHT22;40471;44.534;18.644;2024-02-26T12:41:32;26.10;57.50
52769;DHT22;40471;44.534;18.644;2024-02-26T12:43:58;26.40;58.40
52769;DHT22;40471;44.534;18.644;2024-02-26T12:46:24;26.70;56.30
52769;DHT22;40471;44.534;18.644;2024-02-26T12:48:49;26.90;56.40
52769;DHT22;40471;44.534;18.644;2024-02-26T12:51:16;27.00;57.20
52769;DHT22;40471;44.534;18.644;2024-02-26T12:53:44;27.40;55.40
52769;DHT22;40471;44.534;18.644;2024-02-26T12:56:11;27.20;56.00
52769;DHT22;40471;44.534;18.644;2024-02-26T12:58:40;27.30;55.40
52769;DHT22;40471;44.534;18.644;2024-02-26T13:01:07;27.20;55.10
52769;DHT22;40471;44.534;18.644;2024-02-26T13:03:35;26.80;55.40
52769;DHT22;40471;44.534;18.644;2024-02-26T13:06:02;27.00;55.50
52769;DHT22;40471;44.534;18.644;2024-02-26T13:08:28;27.50;56.60
52769;DHT22;40471;44.534;18.644;2024-02-26T13:10:54;27.70;56.90
52769;DHT22;40471;44.534;18.644;2024-02-26T13:13:22;28.00;54.60
52769;DHT22;40471;44.534;18.644;2024-02-26T13:15:50;27.90;55.90
52769;DHT22;40471;44.534;18.644;2024-02-26T13:18:16;27.80;54.80
52769;DHT22;40471;44.534;18.644;2024-02-26T13:20:42;27.40;55.60
52769;DHT22;40471;44.534;18.644;2024-02-26T13:23:11;26.90;55.30
52769;DHT22;40471;44.534;18.644;2024-02-26T13:25:37;26.50;56.40
52769;DHT22;40471;44.534;18.644;2024-02-26T13:28:15;26.30;56.80
52769;DHT22;40471;44.534;18.644;2024-02-26T13:30:57;26.10;56.00
52769;DHT22;40471;44.534;18.644;2024-02-26T13:33:24;25.70;56.80
52769;DHT22;40471;44.534;18.644;2024-02-26T13:35:51;25.50;57.50
52769;DHT22;40471;44.534;18.644;2024-02-26T13:38:17;25.50;56.80
52769;DHT22;40471;44.534;18.644;2024-02-26T13:40:43;25.50;57.00
52769;DHT22;40471;44.534;18.644;2024-02-26T13:43:08;25.40;58.20
52769;DHT22;40471;44.534;18.644;2024-02-26T13:45:35;25.20;57.80
52769;DHT22;40471;44.534;18.644;2024-02-26T13:48:03;25.20;58.60
52769;DHT22;40471;44.534;18.644;2024-02-26T13:50:29;25.20;58.80
52769;DHT22;40471;44.534;18.644;2024-02-26T13:52:54;25.20;59.40
52769;DHT22;40471;44.534;18.644;2024-02-26T13:55:22;25.20;58.10
52769;DHT22;40471;44.534;18.644;2024-02-26T13:57:50;25.00;57.00
52769;DHT22;40471;44.534;18.644;2024-02-26T14:00:17;24.70;58.30
52769;DHT22;40471;44.534;18.644;2024-02-26T14:02:43;24.40;57.90
52769;DHT22;40471;44.534;18.644;2024-02-26T14:05:09;24.30;58.90
52769;DHT22;40471;44.534;18.644;2024-02-26T14:07:35;24.20;58.30
52769;DHT22;40471;44.534;18.644;2024-02-26T14:10:00;24.10;59.10
52769;DHT22;40471;44.534;18.644;2024-02-26T14:12:26;24.00;58.60
52769;DHT22;40471;44.534;18.644;2024-02-26T14:14:52;24.10;58.90
52769;DHT22;40471;44.534;18.644;2024-02-26T14:17:21;24.00;59.40
52769;DHT22;40471;44.534;18.644;2024-02-26T14:19:48;24.00;59.50
52769;DHT22;40471;44.534;18.644;2024-02-26T14:22:14;24.00;59.50
52769;DHT22;40471;44.534;18.644;2024-02-26T14:24:41;24.00;59.30
52769;DHT22;40471;44.534;18.644;2024-02-26T14:27:10;24.00;59.70
52769;DHT22;40471;44.534;18.644;2024-02-26T14:29:35;24.10;60.00
52769;DHT22;40471;44.534;18.644;2024-02-26T14:32:03;24.10;59.40
52769;DHT22;40471;44.534;18.644;2024-02-26T14:34:29;24.00;59.70
52769;DHT22;40471;44.534;18.644;2024-02-26T14:36:55;23.80;60.10
52769;DHT22;40471;44.534;18.644;2024-02-26T14:39:21;23.80;59.30
52769;DHT22;40471;44.534;18.644;2024-02-26T14:41:47;23.70;59.40
52769;DHT22;40471;44.534;18.644;2024-02-26T14:44:12;23.70;59.60
52769;DHT22;40471;44.534;18.644;2024-02-26T14:46:38;23.70;59.30
52769;DHT22;40471;44.534;18.644;2024-02-26T14:49:04;23.60;59.50
52769;DHT22;40471;44.534;18.644;2024-02-26T14:51:30;23.50;59.30
52769;DHT22;40471;44.534;18.644;2024-02-26T14:53:56;23.40;59.30
52769;DHT22;40471;44.534;18.644;2024-02-26T14:56:24;23.40;59.90
52769;DHT22;40471;44.534;18.644;2024-02-26T14:58:50;23.30;60.50
52769;DHT22;40471;44.534;18.644;2024-02-26T15:01:16;23.20;62.00
52769;DHT22;40471;44.534;18.644;2024-02-26T15:03:42;23.20;63.00
52769;DHT22;40471;44.534;18.644;2024-02-26T15:06:08;23.00;63.80
52769;DHT22;40471;44.534;18.644;2024-02-26T15:08:33;22.70;64.40
52769;DHT22;40471;44.534;18.644;2024-02-26T15:11:01;22.60;64.90
52769;DHT22;40471;44.534;18.644;2024-02-26T15:13:27;22.50;65.50
52769;DHT22;40471;44.534;18.644;2024-02-26T15:15:53;22.50;65.60
52769;DHT22;40471;44.534;18.644;2024-02-26T15:18:18;22.50;66.20
52769;DHT22;40471;44.534;18.644;2024-02-26T15:20:44;22.40;66.10
52769;DHT22;40471;44.534;18.644;2024-02-26T15:23:13;22.20;66.30
52769;DHT22;40471;44.534;18.644;2024-02-26T15:25:39;22.10;66.50
52769;DHT22;40471;44.534;18.644;2024-02-26T15:28:07;22.20;66.80
52769;DHT22;40471;44.534;18.644;2024-02-26T15:30:32;22.10;67.10
52769;DHT22;40471;44.534;18.644;2024-02-26T15:32:59;22.00;67.20
52769;DHT22;40471;44.534;18.644;2024-02-26T15:35:25;22.00;67.50
52769;DHT22;40471;44.534;18.644;2024-02-26T15:37:51;21.90;67.30
52769;DHT22;40471;44.534;18.644;2024-02-26T15:40:18;21.70;66.60
52769;DHT22;40471;44.534;18.644;2024-02-26T15:42:45;21.50;67.50
52769;DHT22;40471;44.534;18.644;2024-02-26T15:45:11;21.30;68.30
52769;DHT22;40471;44.534;18.644;2024-02-26T15:47:36;21.20;68.60
52769;DHT22;40471;44.534;18.644;2024-02-26T15:50:03;21.20;68.80
52769;DHT22;40471;44.534;18.644;2024-02-26T15:52:29;21.20;68.70
52769;DHT22;40471;44.534;18.644;2024-02-26T15:54:55;21.20;69.20
52769;DHT22;40471;44.534;18.644;2024-02-26T15:57:21;21.10;69.30
52769;DHT22;40471;44.534;18.644;2024-02-26T15:59:47;21.10;69.50
52769;DHT22;40471;44.534;18.644;2024-02-26T16:02:18;21.10;70.70
52769;DHT22;40471;44.534;18.644;2024-02-26T16:04:46;20.90;70.30
52769;DHT22;40471;44.534;18.644;2024-02-26T16:07:23;20.80;71.00
52769;DHT22;40471;44.534;18.644;2024-02-26T16:09:52;20.70;71.30
52769;DHT22;40471;44.534;18.644;2024-02-26T16:12:26;20.50;72.00
52769;DHT22;40471;44.534;18.644;2024-02-26T16:14:56;20.40;72.60
52769;DHT22;40471;44.534;18.644;2024-02-26T16:17:28;20.30;73.50
52769;DHT22;40471;44.534;18.644;2024-02-26T16:19:58;20.10;74.20
52769;DHT22;40471;44.534;18.644;2024-02-26T16:22:24;20.00;75.20
52769;DHT22;40471;44.534;18.644;2024-02-26T16:24:50;19.80;75.80
52769;DHT22;40471;44.534;18.644;2024-02-26T16:27:16;19.70;76.60
52769;DHT22;40471;44.534;18.644;2024-02-26T16:29:43;19.50;79.40
52769;DHT22;40471;44.534;18.644;2024-02-26T16:32:09;19.40;81.70
52769;DHT22;40471;44.534;18.644;2024-02-26T16:34:35;19.20;85.40
52769;DHT22;40471;44.534;18.644;2024-02-26T16:37:04;19.00;91.20
52769;DHT22;40471;44.534;18.644;2024-02-26T16:39:39;19.00;97.70
52769;DHT22;40471;44.534;18.644;2024-02-26T16:42:06;18.90;99.90
52769;DHT22;40471;44.534;18.644;2024-02-26T16:44:35;18.80;99.90
52769;DHT22;40471;44.534;18.644;2024-02-26T16:47:03;18.70;99.90
52769;DHT22;40471;44.534;18.644;2024-02-26T16:49:29;18.60;99.90
52769;DHT22;40471;44.534;18.644;2024-02-26T16:51:55;18.40;99.90
52769;DHT22;40471;44.534;18.644;2024-02-26T16:54:22;18.30;99.90
52769;DHT22;40471;44.534;18.644;2024-02-26T16:56:48;18.00;99.90
52769;DHT22;40471;44.534;18.644;2024-02-26T16:59:14;17.90;99.90
52769;DHT22;40471;44.534;18.644;2024-02-26T17:01:39;17.80;99.90
52769;DHT22;40471;44.534;18.644;2024-02-26T17:04:09;17.70;99.90
52769;DHT22;40471;44.534;18.644;2024-02-26T17:06:35;17.60;99.90
52769;DHT22;40471;44.534;18.644;2024-02-26T17:09:00;17.60;99.90
52769;DHT22;40471;44.534;18.644;2024-02-26T17:11:29;17.60;99.90
52769;DHT22;40471;44.534;18.644;2024-02-26T17:13:56;17.50;99.90
52769;DHT22;40471;44.534;18.644;2024-02-26T17:16:21;17.40;99.90
52769;DHT22;40471;44.534;18.644;2024-02-26T17:18:47;17.40;99.90
52769;DHT22;40471;44.534;18.644;2024-02-26T17:21:17;17.30;99.90
52769;DHT22;40471;44.534;18.644;2024-02-26T17:23:43;17.30;99.90
52769;DHT22;40471;44.534;18.644;2024-02-26T17:26:09;17.30;99.90
52769;DHT22;40471;44.534;18.644;2024-02-26T17:28:39;17.20;99.90
52769;DHT22;40471;44.534;18.644;2024-02-26T17:31:05;17.20;99.90
52769;DHT22;40471;44.534;18.644;2024-02-26T17:33:31;17.20;99.90
52769;DHT22;40471;44.534;18.644;2024-02-26T17:35:57;17.10;99.90
52769;DHT22;40471;44.534;18.644;2024-02-26T17:38:23;17.10;99.90
52769;DHT22;40471;44.534;18.644;2024-02-26T17:40:48;16.90;99.90
52769;DHT22;40471;44.534;18.644;2024-02-26T17:43:17;16.90;99.90
52769;DHT22;40471;44.534;18.644;2024-02-26T17:45:44;16.80;99.90
52769;DHT22;40471;44.534;18.644;2024-02-26T17:48:10;16.80;99.90
52769;DHT22;40471;44.534;18.644;2024-02-26T17:50:37;16.70;99.90
52769;DHT22;40471;44.534;18.644;2024-02-26T17:53:03;16.70;99.90
52769;DHT22;40471;44.534;18.644;2024-02-26T17:55:29;16.70;99.90
52769;DHT22;40471;44.534;18.644;2024-02-26T17:57:55;16.60;99.90
52769;DHT22;40471;44.534;18.644;2024-02-26T18:00:21;16.50;99.90
52769;DHT22;40471;44.534;18.644;2024-02-26T18:02:47;16.50;99.90
52769;DHT22;40471;44.534;18.644;2024-02-26T18:05:12;16.50;99.90
52769;DHT22;40471;44.534;18.644;2024-02-26T18:07:38;16.50;99.90
52769;DHT22;40471;44.534;18.644;2024-02-26T18:10:08;16.50;99.90
52769;DHT22;40471;44.534;18.644;2024-02-26T18:12:37;16.40;99.90
52769;DHT22;40471;44.534;18.644;2024-02-26T18:15:04;16.30;99.90
52769;DHT22;40471;44.534;18.644;2024-02-26T18:17:32;16.30;99.90
52769;DHT22;40471;44.534;18.644;2024-02-26T18:19:59;16.30;99.90
52769;DHT22;40471;44.534;18.644;2024-02-26T18:22:25;16.20;99.90
52769;DHT22;40471;44.534;18.644;2024-02-26T18:24:51;16.10;99.90
52769;DHT22;40471;44.534;18.644;2024-02-26T18:27:17;16.10;99.90
52769;DHT22;40471;44.534;18.644;2024-02-26T18:29:43;16.10;99.90
52769;DHT22;40471;44.534;18.644;2024-02-26T18:32:09;16.10;99.90
52769;DHT22;40471;44.534;18.644;2024-02-26T18:34:35;16.20;99.90
52769;DHT22;40471;44.534;18.644;2024-02-26T18:37:04;16.20;99.90
52769;DHT22;40471;44.534;18.644;2024-02-26T18:39:30;16.20;99.90
52769;DHT22;40471;44.534;18.644;2024-02-26T18:41:56;16.20;99.90
52769;DHT22;40471;44.534;18.644;2024-02-26T18:44:26;16.20;99.90
52769;DHT22;40471;44.534;18.644;2024-02-26T18:46:52;16.10;99.90
52769;DHT22;40471;44.534;18.644;2024-02-26T18:49:18;16.10;99.90
52769;DHT22;40471;44.534;18.644;2024-02-26T18:51:44;16.10;99.90
52769;DHT22;40471;44.534;18.644;2024-02-26T18:54:15;16.10;99.90
52769;DHT22;40471;44.534;18.644;2024-02-26T18:56:40;16.00;99.90
52769;DHT22;40471;44.534;18.644;2024-02-26T18:59:06;16.00;99.90
52769;DHT22;40471;44.534;18.644;2024-02-26T19:01:34;15.90;99.90
52769;DHT22;40471;44.534;18.644;2024-02-26T19:04:00;15.90;99.90
52769;DHT22;40471;44.534;18.644;2024-02-26T19:06:26;15.90;99.90
52769;DHT22;40471;44.534;18.644;2024-02-26T19:08:52;15.90;99.90
52769;DHT22;40471;44.534;18.644;2024-02-26T19:11:18;15.90;99.90
52769;DHT22;40471;44.534;18.644;2024-02-26T19:13:46;15.90;99.90
52769;DHT22;40471;44.534;18.644;2024-02-26T19:16:12;15.90;99.90
52769;DHT22;40471;44.534;18.644;2024-02-26T19:18:39;15.90;99.90
52769;DHT22;40471;44.534;18.644;2024-02-26T19:21:05;15.80;99.90
52769;DHT22;40471;44.534;18.644;2024-02-26T19:23:31;15.80;99.90
52769;DHT22;40471;44.534;18.644;2024-02-26T19:25:59;15.90;99.90
52769;DHT22;40471;44.534;18.644;2024-02-26T19:28:25;15.80;99.90
52769;DHT22;40471;44.534;18.644;2024-02-26T19:30:51;15.80;99.90
52769;DHT22;40471;44.534;18.644;2024-02-26T19:33:17;15.80;99.90
52769;DHT22;40471;44.534;18.644;2024-02-26T19:35:43;15.70;99.90
52769;DHT22;40471;44.534;18.644;2024-02-26T19:38:09;15.70;99.90
52769;DHT22;40471;44.534;18.644;2024-02-26T19:40:35;15.60;99.90
52769;DHT22;40471;44.534;18.644;2024-02-26T19:43:01;15.50;99.90
52769;DHT22;40471;44.534;18.644;2024-02-26T19:45:29;15.50;99.90
52769;DHT22;40471;44.534;18.644;2024-02-26T19:47:55;15.40;99.90
52769;DHT22;40471;44.534;18.644;2024-02-26T19:50:21;15.40;99.90
52769;DHT22;40471;44.534;18.644;2024-02-26T19:52:47;15.30;99.90
52769;DHT22;40471;44.534;18.644;2024-02-26T19:55:14;15.20;99.90
52769;DHT22;40471;44.534;18.644;2024-02-26T19:57:41;15.10;99.90
52769;DHT22;40471;44.534;18.644;2024-02-26T20:00:07;15.00;99.90
52769;DHT22;40471;44.534;18.644;2024-02-26T20:02:33;14.90;99.90
52769;DHT22;40471;44.534;18.644;2024-02-26T20:05:00;14.80;99.90
52769;DHT22;40471;44.534;18.644;2024-02-26T20:07:26;14.70;99.90
52769;DHT22;40471;44.534;18.644;2024-02-26T20:09:53;14.70;99.90
52769;DHT22;40471;44.534;18.644;2024-02-26T20:12:19;14.60;99.90
52769;DHT22;40471;44.534;18.644;2024-02-26T20:14:45;14.60;99.90
52769;DHT22;40471;44.534;18.644;2024-02-26T20:17:11;14.60;99.90
52769;DHT22;40471;44.534;18.644;2024-02-26T20:19:39;14.50;99.90
52769;DHT22;40471;44.534;18.644;2024-02-26T20:22:08;14.50;99.90
52769;DHT22;40471;44.534;18.644;2024-02-26T20:24:36;14.40;99.90
52769;DHT22;40471;44.534;18.644;2024-02-26T20:27:01;14.30;99.90
52769;DHT22;40471;44.534;18.644;2024-02-26T20:29:27;14.30;99.90
52769;DHT22;40471;44.534;18.644;2024-02-26T20:31:53;14.20;99.90
52769;DHT22;40471;44.534;18.644;2024-02-26T20:34:19;14.10;99.90
52769;DHT22;40471;44.534;18.644;2024-02-26T20:36:44;14.00;99.90
52769;DHT22;40471;44.534;18.644;2024-02-26T20:39:10;14.00;99.90
52769;DHT22;40471;44.534;18.644;2024-02-26T20:41:36;13.80;99.90
52769;DHT22;40471;44.534;18.644;2024-02-26T20:44:01;13.80;99.90
52769;DHT22;40471;44.534;18.644;2024-02-26T20:46:28;13.70;99.90
52769;DHT22;40471;44.534;18.644;2024-02-26T20:48:54;13.60;99.90
52769;DHT22;40471;44.534;18.644;2024-02-26T20:51:19;13.50;99.90
52769;DHT22;40471;44.534;18.644;2024-02-26T20:53:45;13.40;99.90
52769;DHT22;40471;44.534;18.644;2024-02-26T20:56:12;13.40;99.90
52769;DHT22;40471;44.534;18.644;2024-02-26T20:58:38;13.30;99.90
52769;DHT22;40471;44.534;18.644;2024-02-26T21:01:04;13.30;99.90
52769;DHT22;40471;44.534;18.644;2024-02-26T21:03:32;13.20;99.90
52769;DHT22;40471;44.534;18.644;2024-02-26T21:05:57;13.10;99.90
52769;DHT22;40471;44.534;18.644;2024-02-26T21:08:24;13.10;99.90
52769;DHT22;40471;44.534;18.644;2024-02-26T21:10:49;13.20;99.90
52769;DHT22;40471;44.534;18.644;2024-02-26T21:13:16;13.20;99.90
52769;DHT22;40471;44.534;18.644;2024-02-26T21:15:43;13.10;99.90
52769;DHT22;40471;44.534;18.644;2024-02-26T21:18:08;13.00;99.90
52769;DHT22;40471;44.534;18.644;2024-02-26T21:20:34;12.90;99.90
52769;DHT22;40471;44.534;18.644;2024-02-26T21:23:01;12.80;99.90
52769;DHT22;40471;44.534;18.644;2024-02-26T21:25:27;12.70;99.90
52769;DHT22;40471;44.534;18.644;2024-02-26T21:27:53;12.70;99.90
52769;DHT22;40471;44.534;18.644;2024-02-26T21:30:19;12.70;99.90
52769;DHT22;40471;44.534;18.644;2024-02-26T21:32:45;12.60;99.90
52769;DHT22;40471;44.534;18.644;2024-02-26T21:35:11;12.50;99.90
52769;DHT22;40471;44.534;18.644;2024-02-26T21:37:38;12.50;99.90
52769;DHT22;40471;44.534;18.644;2024-02-26T21:40:05;12.40;99.90
52769;DHT22;40471;44.534;18.644;2024-02-26T21:42:33;12.30;99.90
52769;DHT22;40471;44.534;18.644;2024-02-26T21:44:59;12.30;99.90
52769;DHT22;40471;44.534;18.644;2024-02-26T21:47:24;12.20;99.90
52769;DHT22;40471;44.534;18.644;2024-02-26T21:49:50;12.10;99.90
52769;DHT22;40471;44.534;18.644;2024-02-26T21:52:16;12.10;99.90
52769;DHT22;40471;44.534;18.644;2024-02-26T21:54:49;12.10;99.90
52769;DHT22;40471;44.534;18.644;2024-02-26T21:57:16;12.20;99.90
52769;DHT22;40471;44.534;18.644;2024-02-26T21:59:42;12.20;99.90
52769;DHT22;40471;44.534;18.644;2024-02-26T22:02:08;12.20;99.90
52769;DHT22;40471;44.534;18.644;2024-02-26T22:04:34;12.20;99.90
52769;DHT22;40471;44.534;18.644;2024-02-26T22:06:59;12.20;99.90
52769;DHT22;40471;44.534;18.644;2024-02-26T22:09:25;12.20;99.90
52769;DHT22;40471;44.534;18.644;2024-02-26T22:11:52;12.20;99.90
52769;DHT22;40471;44.534;18.644;2024-02-26T22:14:18;12.20;99.90
52769;DHT22;40471;44.534;18.644;2024-02-26T22:16:44;12.10;99.90
52769;DHT22;40471;44.534;18.644;2024-02-26T22:19:10;12.00;99.90
52769;DHT22;40471;44.534;18.644;2024-02-26T22:21:40;12.00;99.90
52769;DHT22;40471;44.534;18.644;2024-02-26T22:24:06;12.00;99.90
52769;DHT22;40471;44.534;18.644;2024-02-26T22:26:32;11.90;99.90
52769;DHT22;40471;44.534;18.644;2024-02-26T22:28:58;11.90;99.90
52769;DHT22;40471;44.534;18.644;2024-02-26T22:31:24;11.90;99.90
52769;DHT22;40471;44.534;18.644;2024-02-26T22:33:51;11.90;99.90
52769;DHT22;40471;44.534;18.644;2024-02-26T22:36:17;12.00;99.90
52769;DHT22;40471;44.534;18.644;2024-02-26T22:38:44;12.00;99.90
52769;DHT22;40471;44.534;18.644;2024-02-26T22:41:10;11.90;99.90
52769;DHT22;40471;44.534;18.644;2024-02-26T22:43:35;11.80;99.90
52769;DHT22;40471;44.534;18.644;2024-02-26T22:46:01;11.80;99.90
52769;DHT22;40471;44.534;18.644;2024-02-26T22:48:27;11.80;99.90
52769;DHT22;40471;44.534;18.644;2024-02-26T22:50:53;11.70;99.90
52769;DHT22;40471;44.534;18.644;2024-02-26T22:53:19;11.60;99.90
52769;DHT22;40471;44.534;18.644;2024-02-26T22:55:44;11.60;99.90
52769;DHT22;40471;44.534;18.644;2024-02-26T22:58:16;11.60;99.90
52769;DHT22;40471;44.534;18.644;2024-02-26T23:00:42;11.60;99.90
52769;DHT22;40471;44.534;18.644;2024-02-26T23:03:09;11.50;99.90
52769;DHT22;40471;44.534;18.644;2024-02-26T23:05:36;11.50;99.90
52769;DHT22;40471;44.534;18.644;2024-02-26T23:08:02;11.40;99.90
52769;DHT22;40471;44.534;18.644;2024-02-26T23:10:28;11.40;99.90
52769;DHT22;40471;44.534;18.644;2024-02-26T23:12:54;11.30;99.90
52769;DHT22;40471;44.534;18.644;2024-02-26T23:15:20;11.30;99.90
52769;DHT22;40471;44.534;18.644;2024-02-26T23:17:47;11.20;99.90
52769;DHT22;40471;44.534;18.644;2024-02-26T23:20:19;11.20;99.90
52769;DHT22;40471;44.534;18.644;2024-02-26T23:22:47;11.20;99.90
52769;DHT22;40471;44.534;18.644;2024-02-26T23:25:14;11.20;99.90
52769;DHT22;40471;44.534;18.644;2024-02-26T23:27:42;11.30;99.90
52769;DHT22;40471;44.534;18.644;2024-02-26T23:30:08;11.40;99.90
52769;DHT22;40471;44.534;18.644;2024-02-26T23:32:34;11.30;99.90
52769;DHT22;40471;44.534;18.644;2024-02-26T23:35:00;11.30;99.90
52769;DHT22;40471;44.534;18.644;2024-02-26T23:37:26;11.20;99.90
52769;DHT22;40471;44.534;18.644;2024-02-26T23:39:53;11.20;99.90
52769;DHT22;40471;44.534;18.644;2024-02-26T23:42:18;11.10;99.90
52769;DHT22;40471;44.534;18.644;2024-02-26T23:44:45;11.10;99.90
52769;DHT22;40471;44.534;18.644;2024-02-26T23:47:11;11.10;99.90
52769;DHT22;40471;44.534;18.644;2024-02-26T23:49:37;11.00;99.90
52769;DHT22;40471;44.534;18.644;2024-02-26T23:52:03;11.00;99.90
52769;DHT22;40471;44.534;18.644;2024-02-26T23:54:29;11.00;99.90
52769;DHT22;40471;44.534;18.644;2024-02-26T23:56:55;10.90;99.90